createdAt,value
2023-02-03T00:00:17.078Z,84.04
2023-02-03T00:02:45.434Z,86.46
2023-02-03T00:05:13.348Z,87.32
2023-02-03T00:07:42.908Z,86.38
2023-02-03T00:10:14.471Z,85.55
2023-02-03T00:12:42.302Z,84.76
2023-02-03T00:15:11.511Z,85.54
2023-02-03T00:17:39.842Z,86.08
2023-02-03T00:20:08.508Z,84.51
2023-02-03T00:22:36.378Z,86.01
2023-02-03T00:25:05.166Z,85.07
2023-02-03T00:27:33.819Z,84.72
2023-02-03T00:30:01.703Z,85.01
2023-02-03T00:32:32.677Z,84.58
2023-02-03T00:35:00.600Z,84.12
2023-02-03T00:37:28.544Z,83.86
2023-02-03T00:39:57.000Z,85.15
2023-02-03T00:42:24.722Z,86.46
2023-02-03T00:44:52.545Z,86.66
2023-02-03T00:47:20.762Z,85.00
2023-02-03T00:49:48.583Z,84.97
2023-02-03T00:52:17.624Z,86.16
2023-02-03T00:54:46.366Z,85.29
2023-02-03T00:57:14.124Z,86.62
2023-02-03T00:59:42.012Z,86.60
2023-02-03T01:02:11.498Z,87.20
2023-02-03T01:04:39.342Z,86.77
2023-02-03T01:07:07.222Z,87.69
2023-02-03T01:09:39.533Z,84.90
2023-02-03T01:12:07.543Z,84.39
2023-02-03T01:14:35.786Z,85.56
2023-02-03T01:17:05.077Z,86.33
2023-02-03T01:19:32.991Z,85.63
2023-02-03T01:22:01.244Z,83.43
2023-02-03T01:24:31.441Z,84.41
2023-02-03T01:26:59.376Z,87.11
2023-02-03T01:29:31.986Z,84.56
2023-02-03T01:31:59.871Z,86.56
2023-02-03T01:34:31.645Z,85.93
2023-02-03T01:37:00.029Z,87.04
2023-02-03T01:39:29.370Z,86.50
2023-02-03T01:41:57.673Z,87.83
2023-02-03T01:44:52.577Z,87.06
2023-02-03T01:47:53.427Z,84.93
2023-02-03T01:50:32.918Z,85.19
2023-02-03T01:53:09.579Z,83.36
2023-02-03T01:55:45.171Z,85.14
2023-02-03T01:58:26.065Z,84.36
2023-02-03T02:00:55.942Z,86.16
2023-02-03T02:03:30.171Z,84.98
2023-02-03T02:06:18.623Z,84.40
2023-02-03T02:08:51.724Z,86.13
2023-02-03T02:11:21.833Z,84.66
2023-02-03T02:13:53.620Z,83.74
2023-02-03T02:17:06.354Z,84.65
2023-02-03T02:20:14.824Z,84.09
2023-02-03T02:23:12.437Z,84.17
2023-02-03T02:25:57.479Z,85.24
2023-02-03T02:29:03.999Z,84.37
2023-02-03T02:31:56.833Z,85.10
2023-02-03T02:34:42.327Z,85.16
2023-02-03T02:37:19.771Z,85.61
2023-02-03T02:39:58.712Z,85.16
2023-02-03T02:42:35.500Z,86.25
2023-02-03T02:45:15.908Z,85.05
2023-02-03T02:47:45.634Z,84.89
2023-02-03T02:50:29.828Z,84.87
2023-02-03T02:52:58.753Z,84.88
2023-02-03T02:55:34.559Z,85.63
2023-02-03T02:58:08.504Z,85.39
2023-02-03T03:00:41.862Z,85.29
2023-02-03T03:03:13.771Z,85.53
2023-02-03T03:05:49.685Z,86.15
2023-02-03T03:08:22.177Z,84.83
2023-02-03T03:10:53.160Z,84.82
2023-02-03T03:13:32.658Z,85.54
2023-02-03T03:16:08.127Z,84.30
2023-02-03T03:18:49.946Z,86.37
2023-02-03T03:21:24.949Z,86.53
2023-02-03T03:23:59.825Z,86.96
2023-02-03T03:26:31.190Z,85.18
2023-02-03T03:29:08.046Z,85.93
2023-02-03T03:31:36.791Z,84.67
2023-02-03T03:34:04.758Z,85.74
2023-02-03T03:36:46.641Z,84.55
2023-02-03T03:39:36.731Z,86.70
2023-02-03T03:42:29.145Z,85.00
2023-02-03T03:45:04.458Z,84.04
2023-02-03T03:47:36.711Z,84.21
2023-02-03T03:50:15.466Z,85.50
2023-02-03T03:52:46.081Z,85.07
2023-02-03T03:55:19.951Z,86.34
2023-02-03T03:57:59.920Z,85.79
2023-02-03T04:00:34.137Z,85.75
2023-02-03T04:03:12.548Z,85.48
2023-02-03T04:05:41.307Z,86.00
2023-02-03T04:08:09.892Z,85.71
2023-02-03T04:10:40.160Z,86.66
2023-02-03T04:13:09.318Z,87.10
2023-02-03T04:15:37.904Z,86.27
2023-02-03T04:18:06.418Z,87.40
2023-02-03T04:20:34.511Z,85.69
2023-02-03T04:23:05.551Z,85.84
2023-02-03T04:25:33.448Z,86.04
2023-02-03T04:28:01.315Z,85.16
2023-02-03T04:30:29.859Z,84.93
2023-02-03T04:32:58.064Z,85.99
2023-02-03T04:35:25.960Z,87.54
2023-02-03T04:37:57.194Z,86.51
2023-02-03T04:40:25.214Z,87.62
2023-02-03T04:42:53.209Z,88.14
2023-02-03T04:45:21.546Z,88.27
2023-02-03T04:47:54.751Z,87.58
2023-02-03T04:50:23.292Z,86.08
2023-02-03T04:52:51.502Z,87.72
2023-02-03T04:55:22.173Z,87.40
2023-02-03T04:57:59.663Z,86.63
2023-02-03T05:00:29.503Z,85.42
2023-02-03T05:02:57.995Z,87.35
2023-02-03T05:05:25.849Z,87.21
2023-02-03T05:07:53.728Z,87.99
2023-02-03T05:10:21.938Z,85.71
2023-02-03T05:12:49.968Z,86.07
2023-02-03T05:15:17.850Z,85.02
2023-02-03T05:17:45.985Z,84.18
2023-02-03T05:20:13.694Z,85.46
2023-02-03T05:22:41.505Z,84.25
2023-02-03T05:25:10.019Z,86.80
2023-02-03T05:27:41.878Z,86.72
2023-02-03T05:30:10.950Z,87.96
2023-02-03T05:32:38.838Z,86.45
2023-02-03T05:35:08.146Z,85.51
2023-02-03T05:37:36.505Z,84.24
2023-02-03T05:40:27.029Z,85.23
2023-02-03T05:42:55.278Z,84.70
2023-02-03T05:45:23.321Z,85.75
2023-02-03T05:47:51.186Z,86.94
2023-02-03T05:50:19.656Z,88.00
2023-02-03T05:52:50.456Z,87.38
2023-02-03T05:55:18.527Z,87.54
2023-02-03T05:57:46.726Z,88.67
2023-02-03T06:00:15.254Z,88.93
2023-02-03T06:02:43.486Z,88.23
2023-02-03T06:05:11.327Z,88.14
2023-02-03T06:07:39.180Z,89.28
2023-02-03T06:10:07.950Z,91.09
2023-02-03T06:12:35.772Z,90.64
2023-02-03T06:15:03.784Z,89.31
2023-02-03T06:17:32.419Z,88.77
2023-02-03T06:20:00.202Z,87.89
2023-02-03T06:22:27.999Z,87.12
2023-02-03T06:24:56.273Z,89.46
2023-02-03T06:27:24.101Z,86.32
2023-02-03T06:29:51.982Z,88.24
2023-02-03T06:32:20.292Z,85.25
2023-02-03T06:34:48.262Z,87.01
2023-02-03T06:37:16.459Z,87.19
2023-02-03T06:39:44.710Z,88.42
2023-02-03T06:42:12.695Z,88.67
2023-02-03T06:44:40.547Z,85.99
2023-02-03T06:47:08.822Z,86.67
2023-02-03T06:49:36.612Z,88.23
2023-02-03T06:52:04.663Z,87.54
2023-02-03T06:54:32.846Z,89.03
2023-02-03T06:57:00.683Z,86.71
2023-02-03T06:59:31.458Z,87.95
2023-02-03T07:02:03.083Z,88.35
2023-02-03T07:04:30.957Z,87.71
2023-02-03T07:06:59.245Z,87.98
2023-02-03T07:09:27.174Z,86.59
2023-02-03T07:11:58.191Z,87.50
2023-02-03T07:14:26.508Z,86.69
2023-02-03T07:16:54.670Z,86.89
2023-02-03T07:19:22.433Z,86.69
2023-02-03T07:21:50.764Z,88.14
2023-02-03T07:24:18.768Z,88.42
2023-02-03T07:26:46.656Z,87.65
2023-02-03T07:29:14.703Z,84.85
2023-02-03T07:31:42.670Z,84.40
2023-02-03T07:34:10.676Z,85.04
2023-02-03T07:36:39.168Z,86.67
2023-02-03T07:39:06.983Z,87.74
2023-02-03T07:41:34.804Z,86.82
2023-02-03T07:44:02.879Z,86.54
2023-02-03T07:46:30.810Z,84.99
2023-02-03T07:48:58.635Z,84.73
2023-02-03T07:51:29.617Z,84.10
2023-02-03T07:53:57.862Z,83.37
2023-02-03T07:56:26.049Z,81.53
2023-02-03T07:58:53.818Z,84.14
2023-02-03T08:01:22.696Z,81.66
2023-02-03T08:03:51.498Z,83.24
2023-02-03T08:06:20.224Z,83.04
2023-02-03T08:08:48.072Z,84.15
2023-02-03T08:11:16.180Z,82.76
2023-02-03T08:13:43.891Z,82.95
2023-02-03T08:16:15.029Z,81.67
2023-02-03T08:18:43.091Z,82.25
2023-02-03T08:21:11.421Z,81.10
2023-02-03T08:23:39.556Z,82.07
2023-02-03T08:26:07.742Z,81.08
2023-02-03T08:28:35.562Z,82.16
2023-02-03T08:31:10.727Z,81.91
2023-02-03T08:33:39.256Z,80.82
2023-02-03T08:36:07.684Z,81.58
2023-02-03T08:38:35.592Z,81.31
2023-02-03T08:41:12.721Z,82.48
2023-02-03T08:43:41.169Z,81.59
2023-02-03T08:46:11.822Z,81.75
2023-02-03T08:48:39.836Z,81.38
2023-02-03T08:51:15.503Z,80.23
2023-02-03T08:53:43.801Z,80.62
2023-02-03T08:56:12.831Z,81.61
2023-02-03T08:58:43.836Z,80.57
2023-02-03T09:01:15.074Z,80.06
2023-02-03T09:03:43.221Z,81.01
2023-02-03T09:06:16.928Z,80.92
2023-02-03T09:08:46.615Z,80.90
2023-02-03T09:11:17.020Z,81.53
2023-02-03T09:13:49.010Z,80.22
2023-02-03T09:16:19.540Z,81.43
2023-02-03T09:18:48.347Z,80.56
2023-02-03T09:21:31.676Z,80.65
2023-02-03T09:24:04.129Z,79.45
2023-02-03T09:26:32.091Z,80.88
2023-02-03T09:28:59.960Z,80.84
2023-02-03T09:31:28.148Z,79.69
2023-02-03T09:33:55.967Z,79.39
2023-02-03T09:36:23.762Z,79.05
2023-02-03T09:38:52.294Z,78.45
2023-02-03T09:41:54.713Z,78.55
2023-02-03T09:44:52.310Z,78.42
2023-02-03T09:47:29.834Z,77.99
2023-02-03T09:50:01.908Z,78.68
2023-02-03T09:52:46.102Z,78.75
2023-02-03T09:55:41.371Z,79.13
2023-02-03T09:58:15.713Z,79.02
2023-02-03T10:00:47.258Z,79.04
2023-02-03T10:03:29.314Z,79.41
2023-02-03T10:06:08.679Z,79.43
2023-02-03T10:09:05.891Z,79.49
2023-02-03T10:12:11.052Z,79.45
2023-02-03T10:14:50.598Z,79.19
2023-02-03T10:17:34.681Z,78.63
2023-02-03T10:20:24.576Z,78.50
2023-02-03T10:22:57.435Z,79.01
2023-02-03T10:25:46.024Z,79.43
2023-02-03T10:28:22.604Z,80.60
2023-02-03T10:30:57.295Z,79.86
2023-02-03T10:33:30.478Z,79.35
2023-02-03T10:36:01.768Z,79.15
2023-02-03T10:38:47.181Z,79.22
2023-02-03T10:41:18.309Z,79.06
2023-02-03T10:43:53.190Z,78.83
2023-02-03T10:46:29.003Z,78.71
2023-02-03T10:48:57.447Z,78.40
2023-02-03T10:51:27.920Z,78.48
2023-02-03T10:53:55.668Z,78.15
2023-02-03T10:56:27.504Z,77.94
2023-02-03T10:58:58.930Z,77.66
2023-02-03T11:01:41.386Z,76.73
2023-02-03T11:04:31.333Z,77.35
2023-02-03T11:07:07.480Z,77.14
2023-02-03T11:09:43.058Z,77.15
2023-02-03T11:12:21.196Z,77.77
2023-02-03T11:14:52.050Z,77.65
2023-02-03T11:17:27.428Z,78.19
2023-02-03T11:20:05.083Z,78.53
2023-02-03T11:22:44.513Z,79.12
2023-02-03T11:25:29.748Z,79.85
2023-02-03T11:28:07.355Z,80.37
2023-02-03T11:30:35.520Z,80.38
2023-02-03T11:33:04.183Z,80.99
2023-02-03T11:35:33.863Z,80.88
2023-02-03T11:38:02.593Z,81.37
2023-02-03T11:40:34.494Z,81.15
2023-02-03T11:43:16.275Z,81.40
2023-02-03T11:45:51.150Z,81.58
2023-02-03T11:48:33.607Z,81.78
2023-02-03T11:51:24.021Z,81.32
2023-02-03T11:54:05.758Z,81.33
2023-02-03T11:56:51.310Z,81.75
2023-02-03T11:59:22.040Z,81.63
2023-02-03T12:01:59.275Z,81.70
2023-02-03T12:05:04.719Z,82.23
2023-02-03T12:07:41.407Z,82.62
2023-02-03T12:10:46.389Z,83.43
2023-02-03T12:14:01.341Z,83.75
2023-02-03T12:16:59.400Z,83.10
2023-02-03T12:20:11.728Z,83.29
2023-02-03T12:22:51.850Z,83.05
2023-02-03T12:25:31.381Z,82.90
2023-02-03T12:28:02.265Z,83.00
2023-02-03T12:30:45.303Z,83.04
2023-02-03T12:33:33.265Z,83.62
2023-02-03T12:36:15.428Z,83.79
2023-02-03T12:39:25.056Z,84.15
2023-02-03T12:42:06.642Z,84.34
2023-02-03T12:44:48.067Z,84.45
2023-02-03T12:47:27.671Z,84.84
2023-02-03T12:50:16.579Z,84.40
2023-02-03T12:53:37.182Z,84.02
2023-02-03T12:56:12.658Z,83.42
2023-02-03T12:58:42.745Z,83.45
2023-02-03T13:01:25.427Z,84.52
2023-02-03T13:04:03.781Z,83.98
2023-02-03T13:06:52.206Z,84.51
2023-02-03T13:09:47.844Z,84.60
2023-02-03T13:12:28.930Z,85.02
2023-02-03T13:15:33.221Z,84.44
2023-02-03T13:18:26.878Z,84.41
2023-02-03T13:20:55.682Z,84.19
2023-02-03T13:23:25.208Z,84.46
2023-02-03T13:26:31.685Z,85.37
2023-02-03T13:29:31.670Z,84.43
2023-02-03T13:32:30.180Z,85.60
2023-02-03T13:35:08.385Z,85.35
2023-02-03T13:37:54.855Z,84.90
2023-02-03T13:40:25.817Z,84.46
2023-02-03T13:43:01.322Z,84.83
2023-02-03T13:45:37.870Z,85.80
2023-02-03T13:48:18.752Z,84.78
2023-02-03T13:50:48.255Z,85.08
2023-02-03T13:53:22.716Z,85.15
2023-02-03T13:55:57.555Z,84.67
2023-02-03T13:58:28.692Z,85.04
2023-02-03T14:01:02.444Z,85.00
2023-02-03T14:03:30.666Z,84.88
2023-02-03T14:06:01.931Z,84.65
2023-02-03T14:08:30.019Z,84.57
2023-02-03T14:11:34.661Z,84.91
2023-02-03T14:14:09.434Z,84.36
2023-02-03T14:16:43.195Z,84.59
2023-02-03T14:19:18.858Z,84.78
2023-02-03T14:21:52.549Z,84.89
2023-02-03T14:24:22.969Z,84.84
2023-02-03T14:26:53.804Z,84.67
2023-02-03T14:29:35.350Z,84.90
2023-02-03T14:32:03.086Z,84.97
2023-02-03T14:34:47.316Z,84.84
2023-02-03T14:37:31.045Z,85.46
2023-02-03T14:40:10.534Z,84.99
2023-02-03T14:43:12.061Z,85.28
2023-02-03T14:46:07.131Z,85.47
2023-02-03T14:48:43.729Z,85.73
2023-02-03T14:51:20.939Z,85.50
2023-02-03T14:54:09.955Z,85.51
2023-02-03T14:57:19.990Z,85.79
2023-02-03T14:59:51.234Z,85.39
2023-02-03T15:02:26.752Z,85.87
2023-02-03T15:05:13.170Z,86.19
2023-02-03T15:07:52.747Z,85.66
2023-02-03T15:10:23.784Z,85.09
2023-02-03T15:12:54.745Z,84.91
2023-02-03T15:15:24.480Z,85.34
2023-02-03T15:17:55.503Z,85.35
2023-02-03T15:20:41.692Z,85.38
2023-02-03T15:23:31.099Z,85.32
2023-02-03T15:26:02.662Z,86.22
2023-02-03T15:28:31.148Z,86.55
2023-02-03T15:31:08.681Z,87.38
2023-02-03T15:33:38.959Z,87.66
2023-02-03T15:36:15.197Z,86.80
2023-02-03T15:38:50.353Z,85.66
2023-02-03T15:41:24.548Z,86.67
2023-02-03T15:44:03.274Z,85.33
2023-02-03T15:46:41.064Z,85.71
2023-02-03T15:49:22.276Z,85.70
2023-02-03T15:52:02.413Z,86.10
2023-02-03T15:54:40.295Z,85.57
2023-02-03T15:57:17.240Z,86.16
2023-02-03T16:00:08.443Z,86.34
2023-02-03T16:02:46.207Z,86.81
2023-02-03T16:05:28.425Z,87.17
2023-02-03T16:07:56.492Z,87.00
2023-02-03T16:10:34.362Z,86.26
2023-02-03T16:13:21.527Z,86.26
2023-02-03T16:16:17.826Z,86.40
2023-02-03T16:19:13.709Z,87.90
2023-02-03T16:21:51.094Z,86.95
2023-02-03T16:24:33.469Z,88.06
2023-02-03T16:27:21.953Z,88.68
2023-02-03T16:30:08.166Z,89.07
2023-02-03T16:32:55.372Z,89.32
2023-02-03T16:35:42.518Z,89.33
2023-02-03T16:38:37.171Z,88.77
2023-02-03T16:41:33.840Z,87.98
2023-02-03T16:44:20.867Z,88.91
2023-02-03T16:47:07.718Z,89.49
2023-02-03T16:49:54.288Z,90.10
2023-02-03T16:52:22.197Z,89.96
2023-02-03T16:54:50.323Z,90.17
2023-02-03T16:57:18.194Z,90.31
2023-02-03T16:59:46.065Z,89.57
2023-02-03T17:02:14.434Z,89.21
2023-02-03T17:04:42.487Z,90.01
2023-02-03T17:07:10.415Z,89.98
2023-02-03T17:09:38.743Z,89.18
2023-02-03T17:12:06.931Z,89.76
2023-02-03T17:14:40.684Z,88.78
2023-02-03T17:17:08.945Z,89.87
2023-02-03T17:19:36.845Z,89.18
2023-02-03T17:22:04.766Z,89.95
2023-02-03T17:24:33.054Z,89.92
2023-02-03T17:27:00.897Z,90.91
2023-02-03T17:29:28.874Z,90.72
2023-02-03T17:31:57.077Z,90.45
2023-02-03T17:34:24.940Z,90.03
2023-02-03T17:36:56.341Z,90.56
2023-02-03T17:55:44.194Z,88.76
2023-02-03T17:58:11.987Z,88.56
2023-02-03T18:00:39.861Z,88.20
2023-02-03T18:03:08.048Z,88.15
2023-02-03T18:05:37.584Z,88.59
2023-02-03T18:08:16.232Z,89.29
2023-02-03T18:10:45.713Z,89.20
2023-02-03T18:13:13.713Z,89.08
2023-02-03T18:15:41.719Z,88.25
2023-02-03T18:18:09.995Z,89.47
2023-02-03T18:20:37.965Z,89.31
2023-02-03T18:23:05.845Z,88.36
2023-02-03T18:25:36.222Z,89.17
2023-02-03T18:28:04.254Z,90.29
2023-02-03T18:30:32.505Z,89.83
2023-02-03T18:33:02.301Z,91.05
2023-02-03T18:35:30.616Z,91.32
2023-02-03T18:37:58.367Z,92.02
2023-02-03T18:40:26.817Z,92.07
2023-02-03T18:42:56.515Z,90.52
2023-02-03T18:45:24.366Z,90.03
2023-02-03T18:47:52.626Z,90.77
2023-02-03T18:50:20.797Z,91.47
2023-02-03T18:52:48.775Z,92.11
2023-02-03T18:55:17.200Z,92.34
2023-02-03T18:57:44.933Z,92.17
2023-02-03T19:00:14.597Z,92.17
2023-02-03T19:02:42.797Z,90.88
2023-02-03T19:05:11.959Z,91.20
2023-02-03T19:07:39.906Z,91.72
2023-02-03T19:10:08.462Z,92.24
2023-02-03T19:12:36.325Z,92.45
2023-02-03T19:15:05.056Z,90.95
2023-02-03T19:17:36.369Z,91.96
2023-02-03T19:20:06.276Z,92.57
2023-02-03T19:22:34.433Z,90.66
2023-02-03T19:25:05.436Z,90.18
2023-02-03T19:27:33.234Z,91.68
2023-02-03T19:30:01.416Z,91.71
2023-02-03T19:32:32.422Z,91.81
2023-02-03T19:35:03.316Z,91.47
2023-02-03T19:37:31.699Z,91.85
2023-02-03T19:39:59.492Z,92.35
2023-02-03T19:42:27.438Z,92.53
2023-02-03T19:44:56.852Z,92.40
2023-02-03T19:47:24.710Z,91.60
2023-02-03T19:49:54.193Z,92.17
2023-02-03T19:52:22.835Z,90.59
2023-02-03T19:54:55.757Z,91.38
2023-02-03T19:57:24.112Z,91.24
2023-02-03T19:59:51.928Z,91.49
2023-02-03T20:02:20.360Z,91.31
2023-02-03T20:04:50.306Z,91.30
2023-02-03T20:07:18.306Z,91.58
2023-02-03T20:09:49.091Z,90.93
2023-02-03T20:12:17.267Z,91.61
2023-02-03T20:14:45.130Z,92.29
2023-02-03T20:17:16.161Z,92.32
2023-02-03T20:19:44.492Z,90.12
2023-02-03T20:22:12.290Z,91.08
2023-02-03T20:24:40.206Z,91.71
2023-02-03T20:27:08.439Z,92.03
2023-02-03T20:29:39.360Z,90.72
2023-02-03T20:32:11.942Z,91.13
2023-02-03T20:34:40.231Z,92.11
2023-02-03T20:37:08.826Z,89.89
2023-02-03T20:39:39.717Z,91.35
2023-02-03T20:42:17.164Z,91.40
2023-02-03T20:44:45.471Z,91.85
2023-02-03T20:47:18.069Z,92.26
2023-02-03T20:49:48.186Z,92.27
2023-02-03T20:52:18.632Z,92.48
2023-02-03T20:54:46.565Z,91.51
2023-02-03T20:57:19.554Z,91.04
2023-02-03T20:59:47.778Z,91.18
2023-02-03T21:02:23.429Z,90.31
2023-02-03T21:05:00.906Z,91.42
2023-02-03T21:07:31.439Z,90.64
2023-02-03T21:10:00.631Z,90.91
2023-02-03T21:12:29.516Z,91.66
2023-02-03T21:14:58.067Z,91.28
2023-02-03T21:17:27.633Z,92.24
2023-02-03T21:19:55.719Z,91.26
2023-02-03T21:22:26.282Z,89.99
2023-02-03T21:24:57.376Z,91.93
2023-02-03T21:27:30.891Z,90.24
2023-02-03T21:30:01.463Z,90.58
2023-02-03T21:32:40.953Z,91.91
2023-02-03T21:35:25.106Z,90.75
2023-02-03T21:38:02.799Z,91.79
2023-02-03T21:40:33.407Z,92.93
2023-02-03T21:43:04.933Z,92.09
2023-02-03T21:45:42.794Z,91.08
2023-02-03T21:48:30.838Z,92.54
2023-02-03T21:51:17.665Z,93.33
2023-02-03T21:53:54.689Z,92.87
2023-02-03T21:56:27.657Z,92.94
2023-02-03T21:59:00.541Z,93.44
2023-02-03T22:01:36.755Z,93.53
2023-02-03T22:04:06.823Z,94.04
2023-02-03T22:06:46.047Z,93.65
2023-02-03T22:09:19.408Z,93.39
2023-02-03T22:11:47.639Z,93.63
2023-02-03T22:14:17.068Z,93.61
2023-02-03T22:16:45.191Z,93.51
2023-02-03T22:19:18.797Z,93.66
2023-02-03T22:21:48.808Z,94.26
2023-02-03T22:24:16.678Z,94.60
2023-02-03T22:26:44.419Z,93.67
2023-02-03T22:29:12.667Z,94.40
2023-02-03T22:31:42.937Z,94.85
2023-02-03T22:34:10.768Z,94.54
2023-02-03T22:36:38.984Z,94.89
2023-02-03T22:39:07.209Z,94.84
2023-02-03T22:41:35.042Z,94.92
2023-02-03T22:44:03.540Z,94.97
2023-02-03T22:46:31.361Z,94.93
2023-02-03T22:48:59.287Z,94.86
2023-02-03T22:51:27.570Z,95.17
2023-02-03T22:53:55.353Z,95.43
2023-02-03T22:56:23.761Z,95.49
2023-02-03T22:58:52.013Z,95.37
2023-02-03T23:01:19.814Z,95.56
2023-02-03T23:03:47.710Z,95.37
2023-02-03T23:06:15.847Z,95.42
2023-02-03T23:08:43.675Z,95.37
2023-02-03T23:11:11.347Z,95.28
2023-02-03T23:13:39.637Z,95.35
2023-02-03T23:16:07.881Z,95.66
2023-02-03T23:18:35.749Z,95.58
2023-02-03T23:21:03.964Z,96.03
2023-02-03T23:23:31.955Z,95.82
2023-02-03T23:25:59.878Z,95.72
2023-02-03T23:28:28.062Z,95.53
2023-02-03T23:30:56.415Z,95.37
2023-02-03T23:33:24.380Z,94.84
2023-02-03T23:35:53.382Z,95.47
2023-02-03T23:38:21.737Z,95.75
2023-02-03T23:40:49.952Z,95.68
2023-02-03T23:43:18.309Z,95.60
2023-02-03T23:45:46.324Z,95.75
2023-02-03T23:48:18.053Z,95.67
2023-02-03T23:50:46.307Z,95.64
2023-02-03T23:53:16.968Z,95.71
2023-02-03T23:55:44.803Z,95.72
2023-02-03T23:58:12.974Z,95.61
